• Join FlightAware (Why Join?)
  • Login
  • US Flag 
Rudolph Flight #1: Arrived! 
07:41AM EST


 

Airport Tracker/Info


-or-


 

Live Flight TrackerFlight Track Log ✈ NLI239 ✈ 28-Jun-2013 ✈ CYQF - CYPE

Flight Track Log - Related Links

Times and Time Zones

All times are in EDT time to prevent confusion due to time zone crossing. See the NLI239 flight status page for this flight to view local times or setup timezone preferences in your user account.

Time Position Orientation Groundspeed Altitude Reporting Facility
EDT Latitude Longitude Course Direction KTS MPH feet Rate Location/Type
02:40PM 52.2667 -114.0167 321° Northwest 170 196 8,300  Level Edmonton Center
02:41PM 52.3000 -114.0167 360° North 170 196 10,600 2,100 Climbing Edmonton Center
02:42PM 52.3333 -114.0500 329° Northwest 180 207 12,600 1,860 Climbing Edmonton Center
02:43PM 52.3833 -114.1000 329° Northwest 180 207 14,400 1,740 Climbing Edmonton Center
02:44PM 52.5141 -114.1561 333° Northwest  Level FlightAware Approximate
02:44PM 52.4333 -114.1333 338° Northwest 180 207 16,100  Level Edmonton Center
02:45PM 52.5717 -114.2033 338° Northwest  Level FlightAware Approximate
02:45PM 52.4833 -114.1667 338° Northwest 190 219 17,800  Level Edmonton Center
02:46PM 52.5333 -114.2000 338° Northwest 180 207 18,800 1,200 Climbing Edmonton Center
02:47PM 52.5833 -114.2500 329° Northwest 190 219 20,200 1,320 Climbing Edmonton Center
02:48PM 52.6333 -114.2833 338° Northwest 180 207 21,500 1,200 Climbing Edmonton Center
02:49PM 52.6667 -114.3167 329° Northwest 180 207 22,600 1,020 Climbing Edmonton Center
02:50PM 52.7000 -114.3667 318° Northwest 180 207 23,600 660 Climbing Edmonton Center
02:51PM 52.7500 -114.4000 338° Northwest 190 219 24,000 180 Climbing Edmonton Center
02:52PM 52.8167 -114.4333 343° North 220 253 24,000  Level Edmonton Center
02:53PM 52.8833 -114.5167 323° Northwest 230 265 24,000  Level Edmonton Center
02:54PM 52.9500 -114.5500 343° North 240 276 24,000  Level Edmonton Center
02:55PM 53.0000 -114.6000 329° Northwest 240 276 24,000  Level Edmonton Center
02:56PM 53.0667 -114.6333 343° North 240 276 24,000  Level Edmonton Center
02:57PM 53.1167 -114.7167 315° West 240 276 24,000  Level Edmonton Center
02:58PM 53.1667 -114.7500 338° Northwest 240 276 24,000  Level Edmonton Center
02:59PM 53.2333 -114.8000 336° Northwest 240 276 24,000  Level Edmonton Center
03:00PM 53.3000 -114.8333 343° North 240 276 24,000  Level Edmonton Center
03:01PM 53.3667 -114.9167 323° Northwest 240 276 24,000  Level Edmonton Center
03:02PM 53.4167 -114.9500 338° Northwest 240 276 24,000  Level Edmonton Center
03:03PM 53.4833 -115.0000 336° Northwest 240 276 24,000  Level Edmonton Center
03:04PM 53.5333 -115.0333 338° Northwest 240 276 24,000  Level Edmonton Center
03:05PM 53.6000 -115.1167 323° Northwest 240 276 24,000  Level Edmonton Center
03:06PM 53.6667 -115.1500 343° North 240 276 24,000  Level Edmonton Center
03:07PM 53.7167 -115.2000 329° Northwest 240 276 24,000  Level Edmonton Center
03:08PM 53.7667 -115.2500 329° Northwest 240 276 24,000  Level Edmonton Center
03:09PM 53.8333 -115.3167 329° Northwest 240 276 24,000  Level Edmonton Center
03:10PM 53.9000 -115.3667 336° Northwest 240 276 24,000  Level Edmonton Center
03:11PM 53.9667 -115.4167 336° Northwest 240 276 24,000  Level Edmonton Center
03:12PM 54.0333 -115.4833 330° Northwest 240 276 24,000  Level Edmonton Center
03:13PM 54.0833 -115.5333 330° Northwest 240 276 24,000  Level Edmonton Center
03:14PM 54.1333 -115.5667 339° North 240 276 24,000  Level Edmonton Center
03:15PM 54.2000 -115.6167 336° Northwest 240 276 24,000  Level Edmonton Center
03:16PM 54.2667 -115.6667 336° Northwest 240 276 24,000  Level Edmonton Center
03:17PM 54.3333 -115.7333 330° Northwest 230 265 24,000  Level Edmonton Center
03:18PM 54.3667 -115.7833 319° Northwest 230 265 24,000  Level Edmonton Center
03:19PM 54.4333 -115.8333 336° Northwest 230 265 24,000  Level Edmonton Center
03:20PM 54.5000 -115.8833 336° Northwest 240 276 24,000  Level Edmonton Center
03:21PM 54.5500 -115.9500 322° Northwest 240 276 24,000  Level Edmonton Center
03:22PM 54.6167 -116.0000 337° Northwest 230 265 24,000  Level Edmonton Center
03:23PM 54.6667 -116.0500 330° Northwest 230 265 24,000  Level Edmonton Center
03:24PM 54.7333 -116.0833 344° North 240 276 24,000  Level Edmonton Center
03:25PM 54.7833 -116.1667 316° Northwest 230 265 24,000  Level Edmonton Center
03:26PM 54.8500 -116.2167 337° Northwest 230 265 24,000  Level Edmonton Center
03:27PM 54.9167 -116.2500 344° North 250 288 24,000  Level Edmonton Center
03:28PM 54.9667 -116.3000 330° Northwest 230 265 24,000  Level Edmonton Center
03:29PM 55.0333 -116.3833 324° Northwest 250 288 24,000  Level Edmonton Center
03:30PM 55.0833 -116.4333 330° Northwest 240 276 24,000  Level Edmonton Center
03:31PM 55.1500 -116.4833 337° Northwest 240 276 24,000  Level Edmonton Center
03:32PM 55.2167 -116.5333 337° Northwest 240 276 24,000  Level Edmonton Center
03:33PM 55.2500 -116.6000 311° West 240 276 24,000 -180 Level Edmonton Center
03:34PM 55.3167 -116.6500 337° Northwest 240 276 23,700 -1,080 Descending Edmonton Center
03:35PM 55.4000 -116.7000 341° North 260 299 21,900 -1,800 Descending Edmonton Center
03:36PM 55.4667 -116.7500 337° Northwest 280 322 20,200 -1,620 Descending Edmonton Center
03:37PM 55.5333 -116.8167 330° Northwest 280 322 18,700 -1,500 Descending Edmonton Center
03:38PM 55.6000 -116.8833 331° Northwest 280 322 17,300 -1,500 Descending Edmonton Center
03:39PM 55.6833 -116.9500 336° Northwest 280 322 15,800 -1,560 Descending Edmonton Center
03:40PM 55.7500 -117.0000 337° Northwest 270 311 14,200 -1,560 Descending Edmonton Center
03:41PM 55.8167 -117.0500 337° Northwest 280 322 12,700 -1,560 Descending Edmonton Center
03:42PM 55.8833 -117.1000 337° Northwest 280 322 11,100 -1,680 Descending Edmonton Center
03:43PM 55.9500 -117.1500 337° Northwest 260 299 9,400 -1,620 Descending Edmonton Center
03:44PM 56.0167 -117.2000 337° Northwest 250 288 7,900 -1,500 Descending Edmonton Center
03:45PM 56.0833 -117.2500 337° Northwest 230 265 6,500 -900 Descending Edmonton Center
03:46PM 56.1333 -117.3000 331° Northwest 230 265 6,100 -420 Descending Edmonton Center
03:48PM 56.1935 -117.4102 331° Northwest  Level FlightAware Approximate
03:55PM 56.2167 -117.4333 331° Northwest  Level FlightAware Approximate
03:56PM 56.2269 -117.4472 331° Northwest  Level Estimated